Time;durP1;ratioP1;P1;durP2;ratioP2;P2;SDS_P1;SDS_P2;PMS_P1;PMS_P2;Temp;Humidity;BMP_temperature;BMP_pressure;BME280_temperature;BME280_humidity;BME280_pressure;Samples;Min_cycle;Max_cycle;Signal;HPM_P1;HPM_P2
2021/06/06 00:03:41;;;;;;;25.20;19.20;;;;;13.10;101948.00;;;;10493674;28;20400;-79
2021/06/06 00:08:44;;;;;;;33.80;20.40;;;;;13.10;101953.00;;;;10494095;28;20195;-79
2021/06/06 00:13:47;;;;;;;28.83;20.90;;;;;13.10;101947.00;;;;10480428;28;20663;-79
2021/06/06 00:18:49;;;;;;;33.07;22.23;;;;;13.10;101954.00;;;;10501037;28;20201;-78
2021/06/06 00:23:52;;;;;;;32.27;21.60;;;;;13.10;101960.00;;;;10533635;28;20562;-79
2021/06/06 00:28:55;;;;;;;39.23;25.70;;;;;13.10;101959.00;;;;10517752;28;20193;-79
2021/06/06 00:33:57;;;;;;;38.73;25.50;;;;;13.00;101959.00;;;;10517280;28;20266;-79
2021/06/06 00:38:59;;;;;;;43.87;28.07;;;;;13.00;101956.00;;;;10501033;28;20203;-80
2021/06/06 00:44:03;;;;;;;35.67;27.00;;;;;12.90;101956.00;;;;10500621;28;20223;-80
2021/06/06 00:49:06;;;;;;;35.53;24.97;;;;;12.90;101952.00;;;;10499653;28;20208;-78
2021/06/06 00:54:21;;;;;;;32.40;23.63;;;;;12.90;101950.00;;;;10499911;28;20232;-80
2021/06/06 00:59:26;;;;;;;38.03;25.57;;;;;12.90;101958.00;;;;10508278;28;20192;-80
2021/06/06 01:04:28;;;;;;;35.63;24.53;;;;;12.90;101951.00;;;;10515943;28;20250;-80
2021/06/06 01:09:31;;;;;;;37.20;23.67;;;;;12.90;101949.00;;;;10516817;28;20192;-80
2021/06/06 01:14:45;;;;;;;38.90;27.67;;;;;12.90;101952.00;;;;10483043;28;20240;-79
2021/06/06 01:19:58;;;;;;;39.90;25.57;;;;;12.80;101947.00;;;;10499928;28;20666;-79
2021/06/06 01:25:13;;;;;;;37.37;25.13;;;;;12.80;101932.00;;;;10488126;28;20242;-80
2021/06/06 01:30:22;;;;;;;43.00;26.27;;;;;12.80;101938.00;;;;10515785;28;20555;-79
2021/06/06 01:35:42;;;;;;;33.77;23.30;;;;;12.80;101937.00;;;;10499649;28;20262;-79
2021/06/06 01:40:49;;;;;;;36.23;23.73;;;;;12.80;101939.00;;;;10482842;28;20191;-80
2021/06/06 01:45:57;;;;;;;38.67;24.73;;;;;12.80;101924.00;;;;10515386;28;20189;-80
2021/06/06 01:51:06;;;;;;;44.60;24.93;;;;;12.90;101924.00;;;;10515849;28;20192;-79
2021/06/06 01:56:15;;;;;;;44.50;27.80;;;;;12.90;101924.00;;;;10492273;28;20212;-79
2021/06/06 02:01:25;;;;;;;40.10;26.43;;;;;12.80;101919.00;;;;10475005;28;20189;-79
2021/06/06 02:06:43;;;;;;;42.70;27.53;;;;;12.80;101918.00;;;;10474280;28;20805;-79
2021/06/06 02:11:54;;;;;;;41.60;26.50;;;;;12.80;101920.00;;;;10473113;28;20227;-79
2021/06/06 02:17:04;;;;;;;44.07;26.73;;;;;12.80;101912.00;;;;10456417;28;20215;-80
2021/06/06 02:22:21;;;;;;;37.53;26.23;;;;;12.70;101915.00;;;;10441616;28;20215;-79
2021/06/06 02:27:44;;;;;;;43.53;26.20;;;;;12.70;101910.00;;;;10488956;28;20197;-80
2021/06/06 02:33:04;;;;;;;41.00;27.87;;;;;12.70;101906.00;;;;10512818;28;20721;-79
2021/06/06 02:38:30;;;;;;;44.20;27.53;;;;;12.70;101907.00;;;;10512696;28;20814;-80
2021/06/06 02:43:48;;;;;;;46.03;28.60;;;;;12.60;101908.00;;;;10513529;28;20193;-79
2021/06/06 02:48:58;;;;;;;40.60;27.53;;;;;12.50;101912.00;;;;10513210;28;20280;-80
2021/06/06 02:54:10;;;;;;;46.83;27.83;;;;;12.40;101915.00;;;;10508322;28;20581;-79
2021/06/06 02:59:20;;;;;;;49.93;29.73;;;;;12.30;101912.00;;;;10454274;28;20200;-80
2021/06/06 03:04:25;;;;;;;44.17;29.53;;;;;12.20;101909.00;;;;10437997;28;20247;-80
2021/06/06 03:09:33;;;;;;;47.30;30.83;;;;;12.10;101913.00;;;;10470641;28;20221;-80
2021/06/06 03:14:41;;;;;;;47.27;30.10;;;;;11.90;101895.00;;;;10487583;28;20209;-80
2021/06/06 03:19:54;;;;;;;51.73;30.70;;;;;11.70;101888.00;;;;10438591;28;20246;-80
2021/06/06 03:25:02;;;;;;;47.37;29.63;;;;;11.60;101898.00;;;;10483955;28;20193;-79
2021/06/06 03:30:27;;;;;;;50.17;29.93;;;;;11.50;101915.00;;;;10512552;28;20644;-81
2021/06/06 03:35:30;;;;;;;50.27;30.73;;;;;11.40;101912.00;;;;10494865;28;20226;-79
2021/06/06 03:40:37;;;;;;;51.47;31.17;;;;;11.40;101921.00;;;;10495340;28;20560;-79
2021/06/06 03:45:43;;;;;;;49.17;30.53;;;;;11.30;101914.00;;;;10468955;28;20197;-79
2021/06/06 03:50:51;;;;;;;51.47;31.60;;;;;11.30;101919.00;;;;10492342;28;20178;-79
2021/06/06 03:55:56;;;;;;;52.90;30.73;;;;;11.30;101920.00;;;;10494662;28;20210;-80
2021/06/06 04:00:58;;;;;;;55.70;32.00;;;;;11.30;101918.00;;;;10476873;28;20204;-80
2021/06/06 04:06:06;;;;;;;55.67;33.40;;;;;11.40;101918.00;;;;10476802;28;20687;-81
2021/06/06 04:11:15;;;;;;;54.37;32.13;;;;;11.50;101923.00;;;;10476499;28;20217;-80
2021/06/06 04:16:22;;;;;;;57.80;32.80;;;;;11.70;101921.00;;;;10477911;28;20217;-78
2021/06/06 04:21:27;;;;;;;63.80;33.60;;;;;11.90;101923.00;;;;10445170;28;20189;-79
2021/06/06 04:26:30;;;;;;;58.53;33.23;;;;;12.10;101921.00;;;;10469849;28;20243;-79
2021/06/06 04:31:34;;;;;;;55.90;31.47;;;;;12.40;101928.00;;;;10501752;28;20212;-79
2021/06/06 04:36:52;;;;;;;64.27;33.17;;;;;12.50;101934.00;;;;10518774;28;20247;-77
2021/06/06 04:41:57;;;;;;;51.73;30.27;;;;;12.60;101940.00;;;;10501557;28;20605;-78
2021/06/06 04:47:09;;;;;;;54.70;31.83;;;;;12.70;101930.00;;;;10517490;28;20189;-78
2021/06/06 04:52:15;;;;;;;50.90;31.30;;;;;12.90;101942.00;;;;10501441;28;20300;-78
2021/06/06 04:57:22;;;;;;;47.70;30.93;;;;;13.20;101956.00;;;;10501817;28;20629;-78
2021/06/06 05:02:24;;;;;;;53.80;31.10;;;;;13.60;101967.00;;;;10499451;28;20209;-78
2021/06/06 05:07:32;;;;;;;53.53;31.17;;;;;14.00;101972.00;;;;10517327;28;20196;-78
2021/06/06 05:12:34;;;;;;;49.83;31.83;;;;;14.40;101978.00;;;;10516831;28;20197;-78
2021/06/06 05:17:37;;;;;;;46.73;27.17;;;;;14.70;101974.00;;;;10498892;28;20244;-79
2021/06/06 05:22:41;;;;;;;40.37;26.83;;;;;15.00;101976.00;;;;10515972;28;20258;-78
2021/06/06 05:27:46;;;;;;;33.10;24.77;;;;;15.30;101967.00;;;;10500475;28;20189;-77
2021/06/06 05:32:50;;;;;;;34.93;25.27;;;;;15.80;101975.00;;;;10477466;28;20327;-78
2021/06/06 05:37:52;;;;;;;30.17;20.80;;;;;16.30;101967.00;;;;10483652;28;20266;-79
2021/06/06 05:42:54;;;;;;;27.63;22.50;;;;;16.60;101969.00;;;;10467916;28;20201;-78
2021/06/06 05:47:56;;;;;;;27.95;21.33;;;;;17.10;101972.00;;;;10497119;28;20220;-78
2021/06/06 05:52:59;;;;;;;30.10;19.42;;;;;17.50;101968.00;;;;10497848;28;20279;-78
2021/06/06 05:58:03;;;;;;;25.30;19.80;;;;;17.80;101968.00;;;;10513871;28;20250;-77
2021/06/06 06:03:06;;;;;;;25.10;19.58;;;;;18.10;101961.00;;;;10483888;28;20209;-78
2021/06/06 06:08:14;;;;;;;28.40;20.48;;;;;18.00;101968.00;;;;10492289;28;20295;-79
2021/06/06 06:13:19;;;;;;;21.05;16.08;;;;;18.50;101972.00;;;;10506231;28;20205;-78
2021/06/06 06:18:23;;;;;;;16.50;13.98;;;;;18.60;101961.00;;;;10470921;28;20209;-78
2021/06/06 06:23:26;;;;;;;17.48;14.18;;;;;18.60;101959.00;;;;10454410;28;20212;-78
2021/06/06 06:28:28;;;;;;;16.33;13.90;;;;;19.20;101962.00;;;;10486474;28;20190;-79
2021/06/06 06:33:44;;;;;;;16.60;13.25;;;;;19.30;101964.00;;;;10461214;28;20225;-78
2021/06/06 06:38:47;;;;;;;14.15;12.00;;;;;19.20;101959.00;;;;10470161;28;20202;-79
2021/06/06 06:43:50;;;;;;;17.65;14.10;;;;;19.70;101958.00;;;;10475699;28;20296;-79
2021/06/06 06:48:53;;;;;;;16.27;12.98;;;;;20.10;101945.00;;;;10469379;28;20660;-78
2021/06/06 06:53:55;;;;;;;21.23;13.80;;;;;20.40;101946.00;;;;10486758;28;20197;-79
2021/06/06 06:58:57;;;;;;;16.30;12.80;;;;;20.60;101937.00;;;;10469153;28;20189;-79
2021/06/06 07:03:59;;;;;;;16.48;14.43;;;;;20.80;101920.00;;;;10475290;28;20201;-78
2021/06/06 07:09:02;;;;;;;16.70;13.95;;;;;21.10;101925.00;;;;10485586;28;20644;-79
2021/06/06 07:14:04;;;;;;;15.32;13.25;;;;;20.70;101919.00;;;;10468627;28;20672;-79
2021/06/06 07:19:07;;;;;;;16.65;13.27;;;;;20.80;101926.00;;;;10502339;28;20193;-78
2021/06/06 07:24:08;;;;;;;17.45;12.15;;;;;21.30;101920.00;;;;10506650;28;20641;-78
2021/06/06 07:29:14;;;;;;;19.05;14.52;;;;;22.00;101906.00;;;;10500396;28;20211;-78
2021/06/06 07:34:17;;;;;;;12.75;11.35;;;;;21.60;101915.00;;;;10503121;28;20232;-78
2021/06/06 07:39:19;;;;;;;14.48;11.65;;;;;21.40;101909.00;;;;10477771;28;20208;-78
2021/06/06 07:44:21;;;;;;;14.43;12.48;;;;;21.80;101904.00;;;;10545326;28;20207;-78
2021/06/06 07:49:23;;;;;;;15.77;12.90;;;;;22.30;101909.00;;;;10501448;28;20242;-78
2021/06/06 07:54:25;;;;;;;14.20;11.80;;;;;22.30;101905.00;;;;10477179;28;20304;-79
2021/06/06 07:59:28;;;;;;;14.98;11.88;;;;;23.00;101895.00;;;;10544411;28;20181;-78
2021/06/06 08:04:31;;;;;;;13.20;11.55;;;;;23.20;101893.00;;;;10462848;28;20205;-79
2021/06/06 08:09:33;;;;;;;13.82;12.48;;;;;22.60;101889.00;;;;10479271;28;20211;-79
2021/06/06 08:14:36;;;;;;;15.82;12.38;;;;;22.90;101884.00;;;;10499518;28;20269;-78
2021/06/06 08:19:38;;;;;;;13.95;12.05;;;;;23.30;101896.00;;;;10462487;28;20204;-79
2021/06/06 08:24:40;;;;;;;14.35;12.77;;;;;23.50;101884.00;;;;10492118;28;20193;-79
2021/06/06 08:29:42;;;;;;;15.90;14.18;;;;;24.10;101879.00;;;;10543305;28;20197;-79
2021/06/06 08:34:45;;;;;;;14.70;12.48;;;;;24.00;101889.00;;;;10453136;28;20691;-79
2021/06/06 08:39:47;;;;;;;15.50;13.95;;;;;23.60;101887.00;;;;10474731;28;20548;-79
2021/06/06 08:45:04;;;;;;;13.48;12.07;;;;;23.80;101889.00;;;;10474347;28;20220;-79
2021/06/06 08:50:14;;;;;;;14.48;13.02;;;;;23.80;101896.00;;;;10487910;28;20266;-79
2021/06/06 08:55:33;;;;;;;13.55;12.18;;;;;24.70;101878.00;;;;10523911;28;20593;-79
2021/06/06 09:00:41;;;;;;;13.80;12.45;;;;;25.20;101879.00;;;;10499350;28;20193;-80
2021/06/06 09:05:45;;;;;;;13.00;11.70;;;;;24.30;101880.00;;;;10508954;28;20185;-80
2021/06/06 09:10:53;;;;;;;12.93;11.30;;;;;24.50;101884.00;;;;10522661;28;20547;-79
2021/06/06 09:16:06;;;;;;;15.32;12.40;;;;;25.20;101894.00;;;;10542288;28;20231;-80
2021/06/06 09:21:18;;;;;;;12.55;11.35;;;;;25.20;101883.00;;;;10508039;28;20243;-78
2021/06/06 09:26:23;;;;;;;11.80;10.60;;;;;26.50;101890.00;;;;10515197;28;20212;-78
2021/06/06 09:31:25;;;;;;;12.27;10.98;;;;;27.00;101886.00;;;;10488626;28;20201;-79
2021/06/06 09:36:40;;;;;;;11.48;10.38;;;;;27.10;101883.00;;;;10471568;28;20624;-78
2021/06/06 09:41:44;;;;;;;12.52;11.20;;;;;25.40;101895.00;;;;10471598;28;20220;-78
2021/06/06 09:47:15;;;;;;;12.63;10.98;;;;;25.40;101878.00;;;;10520863;28;20197;-78
2021/06/06 09:52:19;;;;;;;11.05;9.95;;;;;26.20;101884.00;;;;10504722;28;20681;-78
2021/06/06 09:57:34;;;;;;;11.35;10.25;;;;;26.40;101878.00;;;;10529857;28;20267;-78
2021/06/06 10:02:42;;;;;;;13.25;11.90;;;;;26.20;101881.00;;;;10488074;28;20250;-77
2021/06/06 10:08:06;;;;;;;11.57;10.48;;;;;26.60;101883.00;;;;10480635;28;20190;-78
2021/06/06 10:13:11;;;;;;;14.07;12.68;;;;;27.30;101870.00;;;;10488026;28;20198;-77
2021/06/06 10:18:27;;;;;;;12.02;10.80;;;;;27.70;101876.00;;;;10487773;28;20205;-77
2021/06/06 10:23:42;;;;;;;12.50;11.23;;;;;28.00;101876.00;;;;10481112;28;20668;-77
2021/06/06 10:29:02;;;;;;;10.50;9.52;;;;;27.80;101886.00;;;;10525542;28;20193;-78
2021/06/06 10:34:12;;;;;;;13.40;12.00;;;;;27.30;101865.00;;;;10469185;28;20228;-77
2021/06/06 10:39:23;;;;;;;15.15;13.57;;;;;26.90;101869.00;;;;10525885;28;20193;-77
2021/06/06 10:44:36;;;;;;;13.38;11.63;;;;;27.20;101861.00;;;;10485935;28;20201;-77
2021/06/06 10:49:49;;;;;;;15.23;13.38;;;;;27.30;101874.00;;;;10485390;28;20186;-78
2021/06/06 10:54:56;;;;;;;13.55;12.23;;;;;27.80;101872.00;;;;10497587;28;20216;-77
2021/06/06 11:00:02;;;;;;;15.00;12.10;;;;;28.20;101860.00;;;;10510015;28;20193;-78
2021/06/06 11:05:07;;;;;;;12.98;11.35;;;;;28.50;101861.00;;;;10526975;28;20185;-79
2021/06/06 11:10:31;;;;;;;15.60;13.40;;;;;27.50;101864.00;;;;10504185;28;20231;-77
2021/06/06 11:15:53;;;;;;;13.43;12.13;;;;;28.30;101852.00;;;;10462698;28;20252;-78
2021/06/06 11:20:55;;;;;;;10.25;9.18;;;;;28.80;101856.00;;;;10502616;28;20174;-78
2021/06/06 11:25:57;;;;;;;11.48;10.35;;;;;29.20;101851.00;;;;10504719;28;20904;-78
2021/06/06 11:31:01;;;;;;;9.88;8.98;;;;;27.50;101859.00;;;;10524058;28;20242;-78
2021/06/06 11:36:04;;;;;;;8.35;7.60;;;;;27.00;101860.00;;;;10510082;28;20718;-79
2021/06/06 11:41:30;;;;;;;6.57;5.93;;;;;27.80;101871.00;;;;10452842;28;20289;-78
2021/06/06 11:46:35;;;;;;;8.82;5.93;;;;;27.80;101852.00;;;;10513752;28;20222;-79
2021/06/06 11:51:40;;;;;;;7.57;5.15;;;;;28.50;101851.00;;;;10525554;28;20218;-78
2021/06/06 11:56:45;;;;;;;5.68;4.80;;;;;28.80;101852.00;;;;10483455;28;20687;-78
2021/06/06 12:01:57;;;;;;;5.68;4.13;;;;;29.30;101847.00;;;;10466581;28;20236;-79
2021/06/06 12:07:16;;;;;;;5.78;3.95;;;;;28.00;101857.00;;;;10466998;28;20182;-78
2021/06/06 12:12:31;;;;;;;4.50;3.58;;;;;28.30;101846.00;;;;10499055;28;20220;-79
2021/06/06 12:17:33;;;;;;;6.40;4.93;;;;;28.10;101852.00;;;;10494108;28;20206;-78
2021/06/06 12:22:38;;;;;;;6.55;4.50;;;;;28.50;101842.00;;;;10518347;28;20198;-78
2021/06/06 12:27:50;;;;;;;4.18;3.63;;;;;28.30;101834.00;;;;10527266;28;20203;-79
2021/06/06 12:33:12;;;;;;;4.78;4.38;;;;;27.60;101836.00;;;;10510348;28;20625;-78
2021/06/06 12:38:16;;;;;;;6.90;4.47;;;;;27.20;101836.00;;;;10484758;28;20208;-79
2021/06/06 12:43:25;;;;;;;7.00;4.35;;;;;28.00;101832.00;;;;10532632;28;20203;-79
2021/06/06 12:48:31;;;;;;;4.40;4.00;;;;;28.10;101829.00;;;;10532218;28;20193;-78
2021/06/06 12:53:34;;;;;;;4.97;4.00;;;;;28.50;101823.00;;;;10531084;28;20230;-78
2021/06/06 12:58:38;;;;;;;4.35;3.90;;;;;28.70;101824.00;;;;10473626;28;20237;-79
2021/06/06 13:03:45;;;;;;;6.90;4.80;;;;;29.00;101827.00;;;;10503835;28;20660;-79
2021/06/06 13:08:49;;;;;;;4.40;4.00;;;;;28.60;101826.00;;;;10456088;28;20225;-78
2021/06/06 13:13:54;;;;;;;4.57;4.18;;;;;29.20;101820.00;;;;10472181;28;20208;-78
2021/06/06 13:19:06;;;;;;;9.85;7.05;;;;;29.70;101823.00;;;;10507272;28;20247;-79
2021/06/06 13:24:11;;;;;;;6.15;5.45;;;;;29.80;101823.00;;;;10471132;28;20197;-78
2021/06/06 13:29:33;;;;;;;7.00;5.10;;;;;31.60;101814.00;;;;10474115;28;20190;-78
2021/06/06 13:34:36;;;;;;;5.78;5.25;;;;;32.80;101810.00;;;;10484608;28;20554;-79
2021/06/06 13:39:38;;;;;;;7.47;6.78;;;;;33.60;101816.00;;;;10487600;28;20543;-79
2021/06/06 13:44:41;;;;;;;9.82;5.50;;;;;32.30;101808.00;;;;10472530;28;20276;-79
2021/06/06 13:49:43;;;;;;;5.55;4.93;;;;;32.90;101806.00;;;;10488548;28;20190;-79
2021/06/06 13:54:46;;;;;;;8.52;5.95;;;;;34.40;101806.00;;;;10483659;28;20292;-80
2021/06/06 13:59:48;;;;;;;7.82;6.55;;;;;35.70;101811.00;;;;10511642;28;20192;-80
2021/06/06 14:04:50;;;;;;;5.82;4.97;;;;;32.60;101815.00;;;;10496622;28;20602;-80
2021/06/06 14:09:54;;;;;;;6.25;5.60;;;;;32.60;101809.00;;;;10545415;28;20208;-80
2021/06/06 14:14:56;;;;;;;6.18;5.28;;;;;35.30;101816.00;;;;10493445;28;20193;-80
2021/06/06 14:19:57;;;;;;;6.32;5.82;;;;;35.50;101805.00;;;;10511419;28;20208;-77
2021/06/06 14:24:59;;;;;;;5.85;5.32;;;;;35.20;101809.00;;;;10528830;28;20189;-78
2021/06/06 14:30:03;;;;;;;7.68;4.20;;;;;33.50;101809.00;;;;10527564;28;20999;-78
2021/06/06 14:35:06;;;;;;;4.65;4.05;;;;;32.00;101813.00;;;;10494137;28;20227;-79
2021/06/06 14:40:10;;;;;;;5.00;4.50;;;;;34.70;101807.00;;;;10546239;28;20196;-79
2021/06/06 14:45:21;;;;;;;6.70;5.07;;;;;29.80;101812.00;;;;10527261;28;20651;-79
2021/06/06 14:50:23;;;;;;;4.93;4.53;;;;;28.40;101803.00;;;;10510667;28;20189;-78
2021/06/06 14:55:26;;;;;;;6.15;3.97;;;;;34.80;101785.00;;;;10511432;28;20254;-78
2021/06/06 15:00:51;;;;;;;4.80;4.40;;;;;37.80;101780.00;;;;10512514;28;20264;-78
2021/06/06 15:05:53;;;;;;;6.28;4.28;;;;;35.40;101779.00;;;;10486102;28;20194;-78
2021/06/06 15:10:58;;;;;;;4.45;4.05;;;;;36.20;101763.00;;;;10509063;28;20195;-78
2021/06/06 15:16:03;;;;;;;4.65;4.25;;;;;36.90;101772.00;;;;10474791;28;20208;-78
2021/06/06 15:21:16;;;;;;;5.63;3.78;;;;;37.10;101774.00;;;;10504708;28;20193;-78
2021/06/06 15:26:20;;;;;;;5.75;3.90;;;;;36.80;101765.00;;;;10518451;28;20223;-79
2021/06/06 15:31:23;;;;;;;4.03;3.60;;;;;36.60;101765.00;;;;10459246;28;20609;-79
2021/06/06 15:36:25;;;;;;;5.93;3.40;;;;;36.00;101769.00;;;;10467048;28;20262;-78
2021/06/06 15:41:27;;;;;;;5.55;3.60;;;;;34.20;101761.00;;;;10486645;28;20194;-79
2021/06/06 15:46:41;;;;;;;2.80;2.60;;;;;30.40;101769.00;;;;10455981;28;20193;-79
2021/06/06 15:51:46;;;;;;;3.30;2.97;;;;;28.40;101761.00;;;;10489882;28;20193;-80
2021/06/06 15:56:49;;;;;;;4.10;3.30;;;;;27.70;101762.00;;;;10479082;28;20204;-78
2021/06/06 16:01:55;;;;;;;3.38;3.08;;;;;25.70;101754.00;;;;10489087;28;20606;-80
2021/06/06 16:06:57;;;;;;;4.43;3.20;;;;;24.70;101756.00;;;;10506897;28;20193;-79
2021/06/06 16:11:59;;;;;;;2.70;2.42;;;;;24.40;101745.00;;;;10506995;28;20197;-78
2021/06/06 16:17:01;;;;;;;3.20;2.20;;;;;24.50;101749.00;;;;10506935;28;20213;-80
2021/06/06 16:22:05;;;;;;;3.05;2.55;;;;;24.00;101749.00;;;;10470377;28;20197;-79
2021/06/06 16:27:07;;;;;;;6.10;3.03;;;;;23.70;101737.00;;;;10477777;28;20197;-80
2021/06/06 16:32:08;;;;;;;3.65;2.38;;;;;23.50;101742.00;;;;10464475;28;20213;-78
2021/06/06 16:37:10;;;;;;;4.53;2.53;;;;;23.40;101737.00;;;;10448297;28;20262;-79
2021/06/06 16:42:12;;;;;;;3.75;2.10;;;;;23.30;101745.00;;;;10490500;28;20224;-78
2021/06/06 16:47:14;;;;;;;1.70;1.50;;;;;23.20;101741.00;;;;10473257;28;20195;-79
2021/06/06 16:52:17;;;;;;;3.13;2.03;;;;;23.10;101736.00;;;;10541167;28;20246;-79
2021/06/06 16:57:19;;;;;;;4.30;1.80;;;;;22.90;101726.00;;;;10510958;28;20209;-79
2021/06/06 17:02:24;;;;;;;3.40;1.48;;;;;22.80;101733.00;;;;10477627;28;20215;-79
2021/06/06 17:07:26;;;;;;;2.30;1.33;;;;;22.60;101725.00;;;;10492489;28;20191;-78
2021/06/06 17:12:30;;;;;;;3.72;1.70;;;;;22.50;101729.00;;;;10509513;28;20193;-79
2021/06/06 17:17:32;;;;;;;3.22;1.65;;;;;22.40;101734.00;;;;10508161;28;20224;-79
2021/06/06 17:22:35;;;;;;;3.00;1.40;;;;;22.40;101732.00;;;;10512703;28;20197;-79
2021/06/06 17:27:37;;;;;;;1.77;1.35;;;;;22.30;101726.00;;;;10490996;28;20189;-78
2021/06/06 17:32:41;;;;;;;4.53;1.60;;;;;22.10;101735.00;;;;10458703;28;20233;-79
2021/06/06 17:37:43;;;;;;;2.25;1.17;;;;;21.90;101736.00;;;;10506937;28;20233;-78
2021/06/06 17:42:46;;;;;;;1.73;1.10;;;;;21.80;101733.00;;;;10471601;28;20872;-79
2021/06/06 17:47:48;;;;;;;4.25;1.48;;;;;21.70;101730.00;;;;10492033;28;20194;-79
2021/06/06 17:52:53;;;;;;;4.72;1.30;;;;;21.60;101721.00;;;;10506296;28;20190;-79
2021/06/06 17:57:56;;;;;;;2.97;1.48;;;;;21.50;101728.00;;;;10518052;28;20204;-78
2021/06/06 18:03:01;;;;;;;3.38;1.42;;;;;21.40;101725.00;;;;10513363;28;20970;-78
2021/06/06 18:08:05;;;;;;;2.75;1.38;;;;;21.40;101726.00;;;;10524139;28;20201;-78
2021/06/06 18:13:09;;;;;;;3.50;1.40;;;;;21.20;101736.00;;;;10518428;28;20351;-79
2021/06/06 18:18:11;;;;;;;2.53;1.40;;;;;21.10;101731.00;;;;10503975;28;20209;-77
2021/06/06 18:23:13;;;;;;;1.30;1.20;;;;;20.90;101736.00;;;;10477446;28;20394;-78
2021/06/06 18:28:17;;;;;;;2.17;1.25;;;;;20.70;101746.00;;;;10505515;28;20200;-78
2021/06/06 18:33:20;;;;;;;3.33;0.98;;;;;20.60;101739.00;;;;10487147;28;20745;-78
2021/06/06 18:38:22;;;;;;;2.40;1.13;;;;;20.40;101743.00;;;;10497214;28;20270;-78
2021/06/06 18:43:26;;;;;;;2.60;1.00;;;;;20.30;101746.00;;;;10471551;28;20223;-78
2021/06/06 18:48:28;;;;;;;3.28;1.30;;;;;20.20;101748.00;;;;10456994;28;20185;-78
2021/06/06 18:53:30;;;;;;;4.53;1.15;;;;;20.00;101758.00;;;;10486305;28;20196;-77
2021/06/06 18:58:34;;;;;;;1.00;0.90;;;;;19.90;101760.00;;;;10476610;28;20213;-78
2021/06/06 19:03:38;;;;;;;1.70;1.20;;;;;19.80;101765.00;;;;10485372;28;20201;-78
2021/06/06 19:08:40;;;;;;;1.85;1.30;;;;;19.70;101768.00;;;;10468201;28;20185;-78
2021/06/06 19:13:42;;;;;;;4.72;1.75;;;;;20.70;101756.00;;;;10455795;28;20196;-79
2021/06/06 19:18:44;;;;;;;2.95;1.10;;;;;22.00;101765.00;;;;10512549;28;20205;-78
2021/06/06 19:23:46;;;;;;;3.13;1.17;;;;;20.80;101765.00;;;;10541588;28;20223;-79
2021/06/06 19:28:48;;;;;;;4.78;1.00;;;;;19.90;101779.00;;;;10489579;28;20211;-78
2021/06/06 19:33:52;;;;;;;2.60;1.25;;;;;19.20;101779.00;;;;10505939;28;20235;-78
2021/06/06 19:39:15;;;;;;;3.83;1.40;;;;;18.60;101783.00;;;;10495727;28;20223;-79
2021/06/06 19:44:16;;;;;;;3.08;1.40;;;;;18.30;101793.00;;;;10506633;28;20239;-78
2021/06/06 19:49:18;;;;;;;4.15;1.50;;;;;18.00;101792.00;;;;10493033;28;20193;-78
2021/06/06 19:54:20;;;;;;;3.28;1.40;;;;;17.70;101799.00;;;;10522187;28;20189;-80
2021/06/06 19:59:23;;;;;;;2.47;1.08;;;;;17.50;101801.00;;;;10506402;28;20258;-78
2021/06/06 20:04:26;;;;;;;4.03;1.50;;;;;17.30;101812.00;;;;10483366;28;20206;-79
2021/06/06 20:09:28;;;;;;;2.65;1.45;;;;;17.20;101817.00;;;;10483589;28;20197;-78
2021/06/06 20:14:38;;;;;;;3.87;1.20;;;;;17.10;101822.00;;;;10486070;28;20201;-78
2021/06/06 20:19:40;;;;;;;2.57;1.50;;;;;16.90;101829.00;;;;10463678;28;20231;-77
2021/06/06 20:24:43;;;;;;;3.37;1.70;;;;;16.80;101833.00;;;;10446663;28;20239;-78
2021/06/06 20:29:50;;;;;;;1.90;1.50;;;;;16.60;101825.00;;;;10487628;28;20598;-78
2021/06/06 20:40:08;;;;;;;6.50;1.53;;;;;16.30;101824.00;;;;10510011;28;20235;-77
2021/06/06 20:45:17;;;;;;;5.77;1.50;;;;;16.20;101833.00;;;;10511846;28;20212;-78
2021/06/06 20:50:20;;;;;;;4.90;1.93;;;;;16.00;101844.00;;;;10491841;28;20204;-78
2021/06/06 20:55:24;;;;;;;1.90;1.30;;;;;15.80;101840.00;;;;10505976;28;20216;-79
2021/06/06 21:00:33;;;;;;;4.20;1.57;;;;;15.70;101842.00;;;;10530040;28;20293;-78
2021/06/06 21:05:36;;;;;;;2.17;1.30;;;;;15.50;101850.00;;;;10495234;28;20200;-78
2021/06/06 21:10:39;;;;;;;2.93;1.60;;;;;15.40;101858.00;;;;10454945;28;20595;-78
2021/06/06 21:15:41;;;;;;;2.37;1.67;;;;;15.30;101875.00;;;;10505351;28;20782;-77
2021/06/06 21:20:47;;;;;;;5.77;1.30;;;;;15.20;101865.00;;;;10484431;28;20201;-78
2021/06/06 21:25:51;;;;;;;5.53;2.20;;;;;15.20;101879.00;;;;10474825;28;20193;-78
2021/06/06 21:30:54;;;;;;;4.00;1.90;;;;;15.10;101872.00;;;;10475516;28;20197;-78
2021/06/06 21:36:04;;;;;;;4.70;1.73;;;;;14.90;101874.00;;;;10462780;28;20227;-78
2021/06/06 21:41:09;;;;;;;4.40;1.77;;;;;14.80;101878.00;;;;10475533;28;20200;-78
2021/06/06 21:46:12;;;;;;;3.77;1.97;;;;;14.70;101879.00;;;;10489274;28;20222;-79
2021/06/06 21:51:14;;;;;;;4.23;2.40;;;;;14.50;101885.00;;;;10468469;28;20286;-79
2021/06/06 21:56:16;;;;;;;3.57;2.17;;;;;14.40;101890.00;;;;10471854;28;20638;-79
2021/06/06 22:01:22;;;;;;;6.93;2.20;;;;;14.40;101897.00;;;;10513418;28;20189;-79
2021/06/06 22:06:28;;;;;;;2.20;1.97;;;;;14.40;101898.00;;;;10509405;28;20596;-78
2021/06/06 22:11:31;;;;;;;4.10;1.87;;;;;14.30;101901.00;;;;10481723;28;20193;-78
2021/06/06 22:16:34;;;;;;;4.47;2.13;;;;;14.10;101896.00;;;;10464241;28;20213;-78
2021/06/06 22:22:13;;;;;;;4.53;2.30;;;;;14.00;101897.00;;;;10509945;28;20195;-79
2021/06/06 22:27:53;;;;;;;4.77;2.33;;;;;13.90;101902.00;;;;10501005;28;20197;-79
2021/06/06 22:33:32;;;;;;;5.80;2.63;;;;;13.80;101905.00;;;;10467573;28;20225;-78
2021/06/06 22:39:12;;;;;;;3.00;1.67;;;;;13.70;101913.00;;;;10483917;28;20213;-79
2021/06/06 22:44:51;;;;;;;4.83;2.50;;;;;13.60;101915.00;;;;10491261;28;20568;-78
2021/06/06 22:50:31;;;;;;;4.33;2.43;;;;;13.50;101917.00;;;;10487231;28;20711;-78
2021/06/06 22:56:10;;;;;;;6.77;2.30;;;;;13.40;101921.00;;;;10461498;28;20224;-78
2021/06/06 23:01:49;;;;;;;2.67;2.43;;;;;13.40;101932.00;;;;10503306;28;20197;-78
2021/06/06 23:07:29;;;;;;;3.93;2.20;;;;;13.30;101929.00;;;;10473267;28;20189;-79
2021/06/06 23:13:09;;;;;;;3.73;2.60;;;;;13.20;101930.00;;;;10486553;28;20205;-79
2021/06/06 23:18:10;;;;;;;2.37;2.07;;;;;13.10;101923.00;;;;10467362;28;20213;-79
2021/06/06 23:23:13;;;;;;;3.80;1.77;;;;;13.00;101926.00;;;;10454677;28;20201;-78
2021/06/06 23:28:15;;;;;;;2.23;2.03;;;;;12.90;101925.00;;;;10510185;28;20266;-79
2021/06/06 23:33:17;;;;;;;4.83;2.13;;;;;12.90;101921.00;;;;10509681;28;20256;-79
2021/06/06 23:38:19;;;;;;;3.10;2.43;;;;;12.90;101928.00;;;;10493701;28;20212;-79
2021/06/06 23:43:21;;;;;;;6.83;2.30;;;;;12.80;101920.00;;;;10492659;28;20189;-79
2021/06/06 23:48:23;;;;;;;3.10;2.63;;;;;12.80;101921.00;;;;10509662;28;20218;-79
2021/06/06 23:53:25;;;;;;;5.43;2.20;;;;;12.70;101931.00;;;;10493377;28;20668;-78
2021/06/06 23:58:27;;;;;;;2.93;2.50;;;;;12.60;101929.00;;;;10467892;28;20209;-77
